Terminal Aerodrome Forecast
Issued by NWS Albany, NY

Home | Current Version | Previous Version | Text Only | Print | Product List | Glossary On
Versions: 1 2 3 4 5 6 7 8 9 10 11 12 13 14 15 16 17 18 19 20 21 22
000
FTUS41 KALY 251700
TAFALB
TAF
KALB 251730Z 2518/2618 32012G21KT P6SM SCT050
     FM260000 33008KT P6SM SCT200
     FM260900 35004KT P6SM BKN100 OVC200
     FM261200 03005KT P6SM VCSH BKN050 OVC100
     FM261500 05009KT 5SM -SHSN BKN025 OVC050=

USA.gov is the U.S. government's official web portal to all federal, state and local government web resources and services.